Washington, District of Columbia
Traffic Map
Current Weather Conditions
Washington, District of Columbia
Broken Clouds
Broken Clouds
-5°
Feels Like: -10°
Wind Chill: -10° Ceiling: 25000
Heat Index: -5° Visibility: 10mi
Dew Point: -16° Wind: 7mph
Humidity: 44% Direction: 360° (N)
Pressure: 30.72in Gusts: 0mph
Raw Report DataKDCA 280652Z 36006KT 10SM BKN250 M05/M16 A3072 RMK AO2 SLP401 T10501156
Traffic Incident Summary
Active as of:
Severity:
Category:
InformationThere was an issue retrieving the traffic information for this location. Please try a different location or try again shortly.
Advertisements
Track Severe Weather on mobile